Time;durP1;ratioP1;P1;durP2;ratioP2;P2;SDS_P1;SDS_P2;PMS_P1;PMS_P2;Temp;Humidity;BMP_temperature;BMP_pressure;BME280_temperature;BME280_humidity;BME280_pressure;Samples;Min_cycle;Max_cycle;Signal;HPM_P1;HPM_P2
2023/07/15 00:01:18;;;;;;;13.65;4.07;;;21.90;99.90;;;;;;5130107;27;20118;-72
2023/07/15 00:03:45;;;;;;;7.35;3.70;;;21.90;99.90;;;;;;5133272;27;20036;-72
2023/07/15 00:06:10;;;;;;;6.20;3.65;;;21.90;99.90;;;;;;5133983;27;20423;-73
2023/07/15 00:08:36;;;;;;;11.68;4.13;;;21.80;99.90;;;;;;5133956;27;20102;-73
2023/07/15 00:11:03;;;;;;;6.72;4.07;;;21.80;99.90;;;;;;5133978;27;20023;-72
2023/07/15 00:13:28;;;;;;;6.88;4.00;;;21.80;99.90;;;;;;5133972;27;20043;-73
2023/07/15 00:15:54;;;;;;;8.13;3.88;;;21.80;99.90;;;;;;5134432;27;20384;-73
2023/07/15 00:18:21;;;;;;;11.15;4.32;;;21.80;99.90;;;;;;5128216;27;20467;-72
2023/07/15 00:20:47;;;;;;;13.45;4.10;;;21.70;99.90;;;;;;5133542;27;20343;-72
2023/07/15 00:23:24;;;;;;;11.23;3.72;;;21.70;99.90;;;;;;5133639;27;20031;-73
2023/07/15 00:25:51;;;;;;;8.93;3.67;;;21.70;99.90;;;;;;5133474;27;20348;-73
2023/07/15 00:28:18;;;;;;;12.20;4.03;;;21.80;99.90;;;;;;5133744;27;20050;-73
2023/07/15 00:30:44;;;;;;;7.65;3.60;;;21.80;99.90;;;;;;5132086;27;20027;-73
2023/07/15 00:33:14;;;;;;;7.57;3.97;;;21.80;99.90;;;;;;5122192;27;20027;-72
2023/07/15 00:35:40;;;;;;;11.13;4.00;;;21.80;99.90;;;;;;5133724;27;20022;-73
2023/07/15 00:38:06;;;;;;;8.93;3.40;;;21.80;99.90;;;;;;5133640;27;20027;-73
2023/07/15 00:40:44;;;;;;;7.45;3.40;;;21.80;99.90;;;;;;5133652;27;20475;-72
2023/07/15 00:43:47;;;;;;;10.07;3.40;;;21.80;99.90;;;;;;5115717;27;20410;-73
2023/07/15 00:46:19;;;;;;;9.88;4.07;;;21.70;99.90;;;;;;5133038;27;20019;-72
2023/07/15 00:49:00;;;;;;;9.93;3.83;;;21.70;99.90;;;;;;5127837;27;20023;-72
2023/07/15 00:51:28;;;;;;;11.93;3.22;;;21.70;99.90;;;;;;5132914;27;20047;-72
2023/07/15 00:53:54;;;;;;;9.52;3.40;;;21.70;99.90;;;;;;5133074;27;20094;-72
2023/07/15 00:56:25;;;;;;;9.52;3.47;;;21.70;99.90;;;;;;5133131;27;20487;-72
2023/07/15 00:58:52;;;;;;;7.45;3.35;;;21.70;99.90;;;;;;5133091;27;20019;-72
2023/07/15 01:01:18;;;;;;;8.13;3.38;;;21.60;99.90;;;;;;5133051;27;20367;-73
2023/07/15 01:03:44;;;;;;;8.68;3.35;;;21.60;99.90;;;;;;5132906;27;20015;-73
2023/07/15 01:06:11;;;;;;;5.93;3.22;;;21.60;99.90;;;;;;5130959;27;20475;-72
2023/07/15 01:08:37;;;;;;;7.05;3.05;;;21.50;99.90;;;;;;5131829;27;20098;-72
2023/07/15 01:11:03;;;;;;;5.38;3.10;;;21.50;99.90;;;;;;5132583;27;20149;-73
2023/07/15 01:13:28;;;;;;;8.55;3.50;;;21.50;99.90;;;;;;5111834;27;20047;-72
2023/07/15 01:15:54;;;;;;;10.52;3.40;;;21.50;99.90;;;;;;5132165;27;20049;-72
2023/07/15 01:18:20;;;;;;;7.90;3.08;;;21.40;99.90;;;;;;5132721;27;20084;-72
2023/07/15 01:20:46;;;;;;;8.32;3.72;;;21.40;99.90;;;;;;5129994;27;20027;-72
2023/07/15 01:23:11;;;;;;;6.88;3.90;;;21.40;99.90;;;;;;5132290;27;20023;-72
2023/07/15 01:25:37;;;;;;;10.70;3.45;;;21.30;99.90;;;;;;5132469;27;20449;-73
2023/07/15 01:28:03;;;;;;;10.98;3.63;;;21.30;99.90;;;;;;5132556;27;20064;-73
2023/07/15 01:30:29;;;;;;;9.75;3.50;;;21.30;99.90;;;;;;5132590;27;20030;-72
2023/07/15 01:32:55;;;;;;;9.10;3.50;;;21.30;99.90;;;;;;5122600;27;20068;-73
2023/07/15 01:35:20;;;;;;;8.18;3.70;;;21.20;99.90;;;;;;5132505;27;20417;-72
2023/07/15 01:37:46;;;;;;;11.65;3.38;;;21.20;99.90;;;;;;5132090;27;20019;-73
2023/07/15 01:40:13;;;;;;;6.70;3.40;;;21.20;99.90;;;;;;5130382;27;20019;-72
2023/07/15 01:42:40;;;;;;;11.80;3.72;;;21.20;99.90;;;;;;5132249;27;20034;-73
2023/07/15 01:45:09;;;;;;;10.05;3.38;;;21.10;99.90;;;;;;5100755;27;20409;-73
2023/07/15 01:47:35;;;;;;;10.25;3.53;;;21.10;99.90;;;;;;5132175;27;20011;-73
2023/07/15 01:50:01;;;;;;;8.45;3.50;;;21.10;99.90;;;;;;5132125;27;20027;-73
2023/07/15 01:52:27;;;;;;;6.28;3.40;;;21.10;99.90;;;;;;5131379;27;20450;-73
2023/07/15 01:54:52;;;;;;;8.52;3.47;;;21.10;99.90;;;;;;5119838;27;20016;-72
2023/07/15 01:57:18;;;;;;;11.50;3.75;;;21.10;99.90;;;;;;5128181;27;20015;-72
2023/07/15 01:59:44;;;;;;;9.77;3.15;;;21.10;99.90;;;;;;5132385;27;20112;-72
2023/07/15 02:02:10;;;;;;;6.72;3.40;;;21.10;99.90;;;;;;5117705;27;20049;-73
2023/07/15 02:04:36;;;;;;;8.30;3.60;;;21.00;99.90;;;;;;5131801;27;20498;-73
2023/07/15 02:07:02;;;;;;;8.23;3.30;;;21.00;99.90;;;;;;5131781;27;20106;-72
2023/07/15 02:09:28;;;;;;;10.15;3.67;;;21.00;99.90;;;;;;5131749;27;20098;-73
2023/07/15 02:11:54;;;;;;;6.38;3.13;;;21.00;99.90;;;;;;5131523;27;20027;-73
2023/07/15 02:14:20;;;;;;;8.00;3.15;;;21.00;99.90;;;;;;5121785;27;20085;-72
2023/07/15 02:16:45;;;;;;;6.82;2.75;;;20.90;99.90;;;;;;5127485;27;20022;-72
2023/07/15 02:19:11;;;;;;;8.73;2.80;;;21.00;99.90;;;;;;5131625;27;20027;-72
2023/07/15 02:21:36;;;;;;;5.45;2.88;;;21.00;99.90;;;;;;5131237;27;20027;-72
2023/07/15 02:24:03;;;;;;;4.82;2.78;;;21.00;99.90;;;;;;5130886;27;20030;-72
2023/07/15 02:26:28;;;;;;;6.28;3.10;;;20.90;99.90;;;;;;5131063;27;20364;-72
2023/07/15 02:28:57;;;;;;;5.68;2.70;;;20.90;99.90;;;;;;5131374;27;20012;-72
2023/07/15 02:31:23;;;;;;;5.75;2.70;;;21.00;99.90;;;;;;5131337;27;20027;-72
2023/07/15 02:33:48;;;;;;;8.60;2.85;;;21.00;99.90;;;;;;5131012;27;20034;-72
2023/07/15 02:36:16;;;;;;;7.53;2.80;;;21.00;99.90;;;;;;5131099;27;20050;-72
2023/07/15 02:38:41;;;;;;;6.65;3.00;;;21.00;99.90;;;;;;5131177;27;20494;-72
2023/07/15 02:41:07;;;;;;;8.00;2.97;;;21.00;99.90;;;;;;5131112;27;20026;-72
2023/07/15 02:43:32;;;;;;;6.25;2.88;;;21.00;99.90;;;;;;5131381;27;20026;-72
2023/07/15 02:45:58;;;;;;;4.38;2.78;;;21.00;99.90;;;;;;5131444;27;20015;-72
2023/07/15 02:48:24;;;;;;;5.85;2.58;;;21.00;99.90;;;;;;5130930;27;20027;-73
2023/07/15 02:50:56;;;;;;;7.68;2.90;;;21.00;99.90;;;;;;5130874;27;20051;-73
2023/07/15 02:53:22;;;;;;;6.55;2.85;;;21.00;99.90;;;;;;5112415;27;20496;-72
2023/07/15 02:55:48;;;;;;;5.35;2.70;;;21.00;99.90;;;;;;5130969;27;20387;-72
2023/07/15 02:58:14;;;;;;;4.40;2.75;;;21.00;99.90;;;;;;5130868;28;20011;-73
2023/07/15 03:00:41;;;;;;;6.15;2.90;;;21.00;99.90;;;;;;5131005;28;20023;-72
2023/07/15 03:03:07;;;;;;;5.93;2.97;;;21.00;99.90;;;;;;5130738;28;20098;-72
2023/07/15 03:05:33;;;;;;;9.32;3.50;;;21.00;99.90;;;;;;5131551;28;20029;-72
2023/07/15 03:07:59;;;;;;;7.85;3.05;;;21.00;99.90;;;;;;5130721;28;20026;-72
2023/07/15 03:10:26;;;;;;;9.25;3.20;;;21.00;99.90;;;;;;5112446;28;20027;-72
2023/07/15 03:12:51;;;;;;;7.78;3.10;;;21.00;99.90;;;;;;5130048;28;20023;-73
2023/07/15 03:15:17;;;;;;;6.30;3.40;;;20.90;99.90;;;;;;5130560;28;20037;-73
2023/07/15 03:17:43;;;;;;;7.95;3.25;;;20.90;99.90;;;;;;5130607;28;20425;-72
2023/07/15 03:20:19;;;;;;;6.05;3.25;;;20.90;99.90;;;;;;5130729;28;20064;-73
2023/07/15 03:22:49;;;;;;;8.15;3.40;;;20.90;99.90;;;;;;5130571;28;20389;-73
2023/07/15 03:25:16;;;;;;;8.68;3.35;;;20.80;99.90;;;;;;5130595;28;20057;-72
2023/07/15 03:27:42;;;;;;;8.02;3.80;;;20.80;99.90;;;;;;5130622;28;20539;-73
2023/07/15 03:30:09;;;;;;;6.90;3.85;;;20.80;99.90;;;;;;5112041;28;20106;-72
2023/07/15 03:32:38;;;;;;;10.10;4.05;;;20.80;99.90;;;;;;5131043;28;20016;-72
2023/07/15 03:35:05;;;;;;;10.02;4.00;;;20.80;99.90;;;;;;5130175;28;20061;-72
2023/07/15 03:37:35;;;;;;;11.15;3.60;;;20.80;99.90;;;;;;5133887;27;20019;-72
2023/07/15 03:40:01;;;;;;;6.65;3.50;;;20.80;99.90;;;;;;5134422;27;20036;-72
2023/07/15 03:42:27;;;;;;;5.13;3.33;;;20.80;99.90;;;;;;5134573;27;20534;-72
2023/07/15 03:44:53;;;;;;;9.57;3.40;;;20.80;99.90;;;;;;5134300;27;20352;-72
2023/07/15 03:47:22;;;;;;;9.40;3.28;;;20.80;99.90;;;;;;5134358;27;20467;-72
2023/07/15 03:49:47;;;;;;;6.38;3.15;;;20.80;99.90;;;;;;5134369;27;20425;-73
2023/07/15 03:52:13;;;;;;;7.30;3.42;;;20.80;99.90;;;;;;5133884;27;20047;-73
2023/07/15 03:54:39;;;;;;;8.15;3.47;;;20.80;99.90;;;;;;5134361;27;20019;-73
2023/07/15 03:57:04;;;;;;;6.90;3.00;;;20.80;99.90;;;;;;5134326;27;20475;-73
2023/07/15 03:59:30;;;;;;;6.25;3.20;;;20.80;99.90;;;;;;5134545;27;20018;-73
2023/07/15 04:01:56;;;;;;;6.03;3.13;;;20.80;99.90;;;;;;5125972;27;20535;-72
2023/07/15 04:04:22;;;;;;;10.57;3.17;;;20.80;99.90;;;;;;5133788;27;20098;-72
2023/07/15 04:06:49;;;;;;;9.27;3.17;;;20.80;99.90;;;;;;5134212;27;20016;-72
2023/07/15 04:09:16;;;;;;;9.63;2.97;;;20.80;99.90;;;;;;5133846;27;20019;-72
2023/07/15 04:11:45;;;;;;;8.02;2.85;;;20.80;99.90;;;;;;5134015;27;20330;-73
2023/07/15 04:14:12;;;;;;;7.78;2.70;;;20.80;99.90;;;;;;5134105;27;20053;-72
2023/07/15 04:16:40;;;;;;;9.10;2.60;;;20.70;99.90;;;;;;5134428;27;20020;-73
2023/07/15 04:19:06;;;;;;;9.70;2.83;;;20.70;99.90;;;;;;5133999;27;20494;-73
2023/07/15 04:21:32;;;;;;;8.20;2.50;;;20.70;99.90;;;;;;5133525;27;20027;-73
2023/07/15 04:23:57;;;;;;;7.47;2.90;;;20.70;99.90;;;;;;5133583;27;20051;-72
2023/07/15 04:26:24;;;;;;;7.82;2.55;;;20.70;99.90;;;;;;5133764;27;20098;-72
2023/07/15 04:28:51;;;;;;;8.05;2.10;;;20.70;99.90;;;;;;5133254;27;20019;-72
2023/07/15 04:31:17;;;;;;;6.38;2.05;;;20.60;99.90;;;;;;5134030;27;20080;-72
2023/07/15 04:33:47;;;;;;;5.47;2.10;;;20.60;99.90;;;;;;5133446;27;20981;-73
2023/07/15 04:36:13;;;;;;;7.03;2.30;;;20.60;99.90;;;;;;5133440;27;20027;-73
2023/07/15 04:38:39;;;;;;;9.65;2.17;;;20.60;99.90;;;;;;5133975;27;20016;-72
2023/07/15 04:41:05;;;;;;;5.90;2.28;;;20.60;99.90;;;;;;5133264;27;20404;-72
2023/07/15 04:43:32;;;;;;;6.95;2.00;;;20.60;99.90;;;;;;5133433;27;20031;-72
2023/07/15 04:45:59;;;;;;;8.45;2.00;;;20.50;99.90;;;;;;5133337;27;20046;-72
2023/07/15 04:48:24;;;;;;;6.70;2.03;;;20.50;99.90;;;;;;5132437;27;20024;-72
2023/07/15 04:50:50;;;;;;;8.07;1.85;;;20.50;99.90;;;;;;5132700;27;20053;-73
2023/07/15 04:53:16;;;;;;;8.75;2.38;;;20.50;99.90;;;;;;5133144;27;20015;-73
2023/07/15 04:55:42;;;;;;;9.45;2.33;;;20.50;99.90;;;;;;5132765;27;20480;-73
2023/07/15 04:58:09;;;;;;;5.72;1.85;;;20.50;99.90;;;;;;5133063;27;20111;-73
2023/07/15 05:00:36;;;;;;;8.63;2.10;;;20.50;99.90;;;;;;5127671;27;20032;-72
2023/07/15 05:03:02;;;;;;;5.28;1.80;;;20.50;99.90;;;;;;5112317;27;20096;-72
2023/07/15 05:05:28;;;;;;;9.45;2.72;;;20.50;99.90;;;;;;5109777;27;20523;-72
2023/07/15 05:07:59;;;;;;;6.38;1.90;;;20.50;99.90;;;;;;5131320;27;20084;-72
2023/07/15 05:10:25;;;;;;;8.57;2.50;;;20.50;99.90;;;;;;5131322;27;20506;-72
2023/07/15 05:12:50;;;;;;;7.32;2.50;;;20.50;99.90;;;;;;5131427;27;20080;-72
2023/07/15 05:15:16;;;;;;;9.88;2.63;;;20.50;99.90;;;;;;5131275;27;20026;-72
2023/07/15 05:17:44;;;;;;;9.85;2.45;;;20.40;99.90;;;;;;5131777;27;20079;-72
2023/07/15 05:20:10;;;;;;;7.85;2.47;;;20.40;99.90;;;;;;5132644;27;20023;-72
2023/07/15 05:22:36;;;;;;;6.00;2.50;;;20.40;99.90;;;;;;5132762;27;20023;-72
2023/07/15 05:25:01;;;;;;;8.13;2.92;;;20.40;99.90;;;;;;5132500;27;20053;-72
2023/07/15 05:27:27;;;;;;;11.68;3.22;;;20.40;99.90;;;;;;5132507;27;20023;-72
2023/07/15 05:29:52;;;;;;;13.20;3.10;;;20.50;99.90;;;;;;5132588;27;20026;-72
2023/07/15 05:32:18;;;;;;;9.93;3.30;;;20.40;99.90;;;;;;5132480;27;20392;-73
2023/07/15 05:34:44;;;;;;;9.20;2.97;;;20.40;99.90;;;;;;5114025;27;20019;-72
2023/07/15 05:37:09;;;;;;;8.35;2.22;;;20.40;99.90;;;;;;5132055;27;20015;-72
2023/07/15 05:39:35;;;;;;;6.28;2.20;;;20.40;99.90;;;;;;5132245;27;20467;-72
2023/07/15 05:42:00;;;;;;;8.80;2.17;;;20.40;99.90;;;;;;5132029;27;20090;-72
2023/07/15 05:44:26;;;;;;;9.63;2.38;;;20.40;99.90;;;;;;5132277;27;20043;-72
2023/07/15 05:46:52;;;;;;;8.05;2.30;;;20.30;99.90;;;;;;5131969;27;20018;-72
2023/07/15 05:49:17;;;;;;;6.63;2.20;;;20.30;99.90;;;;;;5132096;27;20356;-72
2023/07/15 05:51:43;;;;;;;10.00;2.45;;;20.30;99.90;;;;;;5132293;27;20047;-73
2023/07/15 05:54:09;;;;;;;8.48;2.42;;;20.30;99.90;;;;;;5131637;27;20099;-73
2023/07/15 05:56:34;;;;;;;9.90;2.28;;;20.30;99.90;;;;;;5113378;27;20019;-73
2023/07/15 05:59:00;;;;;;;6.30;2.20;;;20.20;99.90;;;;;;5130985;27;20383;-72
2023/07/15 06:01:25;;;;;;;9.00;2.78;;;20.20;99.90;;;;;;5112713;27;20418;-73
2023/07/15 06:03:51;;;;;;;6.97;2.45;;;20.20;99.90;;;;;;5131741;27;20023;-73
2023/07/15 06:06:17;;;;;;;7.63;2.53;;;20.30;99.90;;;;;;5131814;27;20026;-72
2023/07/15 06:08:42;;;;;;;11.25;2.53;;;20.30;99.90;;;;;;5105527;28;20020;-73
2023/07/15 06:11:09;;;;;;;7.70;2.22;;;20.30;99.90;;;;;;5127418;27;20023;-73
2023/07/15 06:13:35;;;;;;;6.82;2.45;;;20.30;99.90;;;;;;5131480;27;20016;-72
2023/07/15 06:16:00;;;;;;;10.77;2.20;;;20.30;99.90;;;;;;5131412;27;20068;-72
2023/07/15 06:18:26;;;;;;;8.30;2.15;;;20.30;99.90;;;;;;5131512;27;20090;-73
2023/07/15 06:20:51;;;;;;;9.63;2.35;;;20.40;99.90;;;;;;5131226;27;20077;-72
2023/07/15 06:23:17;;;;;;;7.32;2.22;;;20.50;99.90;;;;;;5131348;27;20478;-72
2023/07/15 06:25:43;;;;;;;8.13;2.53;;;20.50;99.90;;;;;;5131183;27;20030;-72
2023/07/15 06:28:08;;;;;;;6.20;2.22;;;20.60;99.90;;;;;;5125675;27;20023;-72
2023/07/15 06:30:34;;;;;;;8.80;2.55;;;20.70;99.90;;;;;;5131033;27;20024;-72
2023/07/15 06:33:00;;;;;;;10.43;2.78;;;20.70;99.90;;;;;;5131316;27;20019;-72
2023/07/15 06:35:25;;;;;;;9.90;2.65;;;20.80;99.90;;;;;;5131113;27;20486;-73
2023/07/15 06:37:51;;;;;;;7.38;2.15;;;20.80;99.90;;;;;;5131602;27;20024;-72
2023/07/15 06:40:18;;;;;;;8.45;2.50;;;20.90;99.90;;;;;;5112437;27;20103;-72
2023/07/15 06:42:44;;;;;;;9.85;2.40;;;20.90;99.90;;;;;;5131168;27;20030;-72
2023/07/15 06:45:11;;;;;;;6.47;2.30;;;21.00;99.90;;;;;;5130900;27;20045;-72
2023/07/15 06:47:37;;;;;;;6.43;2.42;;;21.00;99.90;;;;;;5130648;27;20015;-72
2023/07/15 06:50:02;;;;;;;8.93;2.30;;;21.00;99.90;;;;;;5131163;27;20023;-72
2023/07/15 06:52:28;;;;;;;4.60;1.83;;;21.10;99.90;;;;;;5126533;27;20047;-72
2023/07/15 06:54:54;;;;;;;9.73;2.42;;;21.20;99.90;;;;;;5123480;27;20052;-72
2023/07/15 06:57:19;;;;;;;6.55;2.25;;;21.20;99.90;;;;;;5130629;27;20019;-72
2023/07/15 06:59:45;;;;;;;5.78;2.10;;;21.30;99.90;;;;;;5130981;28;20023;-72
2023/07/15 07:02:11;;;;;;;6.57;2.13;;;21.30;99.90;;;;;;5130620;28;20490;-72
2023/07/15 07:04:37;;;;;;;8.13;2.28;;;21.40;99.90;;;;;;5112671;28;20023;-72
2023/07/15 07:07:03;;;;;;;6.35;2.17;;;21.50;99.90;;;;;;5130549;28;20019;-73
2023/07/15 07:09:28;;;;;;;6.82;2.38;;;21.50;99.90;;;;;;5131010;28;20027;-72
2023/07/15 07:11:54;;;;;;;5.97;1.98;;;21.50;99.90;;;;;;5133415;27;20050;-72
2023/07/15 07:14:19;;;;;;;3.45;1.67;;;21.60;99.90;;;;;;5135097;27;20023;-72
2023/07/15 07:16:45;;;;;;;6.18;1.60;;;21.70;99.90;;;;;;5134797;27;20047;-72
2023/07/15 07:19:11;;;;;;;5.63;1.73;;;21.80;99.90;;;;;;5134875;27;20023;-72
2023/07/15 07:21:36;;;;;;;5.10;1.95;;;21.80;99.90;;;;;;5134865;27;20476;-73
2023/07/15 07:24:02;;;;;;;5.20;2.03;;;21.90;99.90;;;;;;5134568;27;20029;-72
2023/07/15 07:26:28;;;;;;;4.75;1.60;;;22.00;99.90;;;;;;5135004;27;20023;-73
2023/07/15 07:28:53;;;;;;;6.28;1.70;;;22.10;99.90;;;;;;5134574;27;20520;-73
2023/07/15 07:31:19;;;;;;;4.32;1.60;;;22.10;99.90;;;;;;5134813;27;20031;-73
2023/07/15 07:33:45;;;;;;;5.45;2.03;;;22.20;99.90;;;;;;5134611;27;20134;-72
2023/07/15 07:36:11;;;;;;;4.55;1.80;;;22.30;99.90;;;;;;5134646;27;20027;-72
2023/07/15 07:38:37;;;;;;;3.90;1.50;;;22.30;99.90;;;;;;5134504;27;20023;-72
2023/07/15 07:41:13;;;;;;;5.22;1.80;;;22.30;99.90;;;;;;5134548;27;20494;-72
2023/07/15 07:43:39;;;;;;;3.55;1.60;;;22.30;99.90;;;;;;5134249;27;20027;-72
2023/07/15 07:46:08;;;;;;;4.95;1.90;;;22.30;99.90;;;;;;5134472;27;20011;-73
2023/07/15 07:48:34;;;;;;;5.13;1.75;;;22.40;99.90;;;;;;5134015;27;20361;-72
2023/07/15 07:51:00;;;;;;;4.40;1.83;;;22.50;99.90;;;;;;5134110;27;20054;-73
2023/07/15 07:53:26;;;;;;;4.38;1.98;;;22.50;99.90;;;;;;5134133;27;20061;-73
2023/07/15 07:55:52;;;;;;;3.75;1.50;;;22.60;99.90;;;;;;5132724;27;20024;-72
2023/07/15 07:58:17;;;;;;;4.97;1.60;;;22.60;99.90;;;;;;5134066;27;20024;-72
2023/07/15 08:00:44;;;;;;;5.13;2.05;;;22.60;99.90;;;;;;5134136;27;20041;-73
2023/07/15 08:03:10;;;;;;;5.35;1.90;;;22.70;99.90;;;;;;5133837;27;20031;-72
2023/07/15 08:05:42;;;;;;;3.80;1.60;;;22.70;99.90;;;;;;5117186;27;20096;-73
2023/07/15 08:08:07;;;;;;;3.97;1.55;;;22.80;99.90;;;;;;5130136;27;20027;-73
2023/07/15 08:10:33;;;;;;;6.07;1.70;;;22.90;99.90;;;;;;5134137;27;20523;-72
2023/07/15 08:12:58;;;;;;;5.15;1.67;;;22.90;99.90;;;;;;5133626;27;20019;-73
2023/07/15 08:15:24;;;;;;;2.42;1.67;;;23.00;99.90;;;;;;5133890;27;20007;-73
2023/07/15 08:17:50;;;;;;;5.47;1.80;;;23.10;99.90;;;;;;5134483;27;20046;-73
2023/07/15 08:20:15;;;;;;;3.28;1.70;;;23.20;99.90;;;;;;5109330;27;20102;-73
2023/07/15 08:22:41;;;;;;;4.25;1.60;;;23.20;99.90;;;;;;5132586;27;20481;-73
2023/07/15 08:25:07;;;;;;;3.20;1.85;;;23.30;99.90;;;;;;5133910;27;20023;-73
2023/07/15 08:27:32;;;;;;;5.10;2.17;;;23.30;99.90;;;;;;5111399;28;20011;-72
2023/07/15 08:29:58;;;;;;;4.60;1.95;;;23.40;99.90;;;;;;5128651;27;20103;-72
2023/07/15 08:32:24;;;;;;;2.83;1.80;;;23.50;99.90;;;;;;5133653;27;20042;-72
2023/07/15 08:34:58;;;;;;;5.78;2.30;;;23.40;99.90;;;;;;5133600;27;20391;-72
2023/07/15 08:37:24;;;;;;;5.10;2.35;;;23.40;99.90;;;;;;5133496;27;20098;-72
2023/07/15 08:39:50;;;;;;;5.63;2.10;;;23.40;99.90;;;;;;5133428;27;20102;-72
2023/07/15 08:42:19;;;;;;;4.13;2.00;;;23.30;99.90;;;;;;5133303;27;20019;-71
2023/07/15 08:44:46;;;;;;;4.57;1.70;;;23.30;99.90;;;;;;5131245;27;20023;-72
2023/07/15 08:47:18;;;;;;;5.85;2.03;;;23.40;99.90;;;;;;5132909;27;20019;-72
2023/07/15 08:49:43;;;;;;;6.10;1.70;;;23.40;99.90;;;;;;5133338;27;20027;-72
2023/07/15 08:52:09;;;;;;;3.30;1.80;;;23.40;99.90;;;;;;5120008;27;20039;-72
2023/07/15 08:54:35;;;;;;;5.30;1.77;;;23.40;99.90;;;;;;5133429;27;20015;-72
2023/07/15 08:57:02;;;;;;;5.35;1.55;;;23.40;99.90;;;;;;5133078;27;20072;-72
2023/07/15 08:59:28;;;;;;;4.07;1.40;;;23.50;99.90;;;;;;5133476;27;20060;-72
2023/07/15 09:01:53;;;;;;;6.55;1.55;;;23.50;99.90;;;;;;5133150;27;20027;-72
2023/07/15 09:04:19;;;;;;;3.60;1.85;;;23.50;99.90;;;;;;5132923;27;20083;-72
2023/07/15 09:06:45;;;;;;;3.90;1.75;;;23.60;99.90;;;;;;5133145;27;20073;-72
2023/07/15 09:09:12;;;;;;;3.92;1.80;;;23.70;99.90;;;;;;5114464;27;20472;-71
2023/07/15 09:11:42;;;;;;;3.05;1.50;;;23.60;99.90;;;;;;5133237;27;20069;-71
2023/07/15 09:14:15;;;;;;;4.25;1.48;;;23.60;99.90;;;;;;5132846;27;20046;-72
2023/07/15 09:16:41;;;;;;;4.63;1.70;;;23.60;99.90;;;;;;5132823;27;20063;-71
2023/07/15 09:19:07;;;;;;;2.83;1.45;;;23.60;99.90;;;;;;5132587;27;20027;-72
2023/07/15 09:21:33;;;;;;;2.95;1.40;;;23.70;99.90;;;;;;5132586;27;20102;-72
2023/07/15 09:24:00;;;;;;;4.43;1.60;;;23.70;99.90;;;;;;5132427;27;20023;-71
2023/07/15 09:26:28;;;;;;;3.00;1.40;;;23.70;99.90;;;;;;5132589;27;20019;-71
2023/07/15 09:28:54;;;;;;;2.40;1.50;;;23.70;99.90;;;;;;5132347;27;20444;-71
2023/07/15 09:31:25;;;;;;;5.28;1.70;;;23.70;99.90;;;;;;5132489;27;20023;-71
2023/07/15 09:33:51;;;;;;;5.95;1.50;;;23.70;99.90;;;;;;5131850;27;20030;-72
2023/07/15 09:36:32;;;;;;;5.57;1.85;;;23.80;99.90;;;;;;5132033;27;20015;-72
2023/07/15 09:39:15;;;;;;;3.95;1.55;;;23.90;99.90;;;;;;5131851;27;20019;-72
2023/07/15 09:41:43;;;;;;;4.00;1.73;;;24.00;99.90;;;;;;5132093;27;20044;-72
2023/07/15 09:44:10;;;;;;;5.85;1.73;;;24.10;99.90;;;;;;5132469;27;20448;-72
2023/07/15 09:46:39;;;;;;;4.78;1.90;;;24.20;99.90;;;;;;5132243;27;20395;-72
2023/07/15 09:49:04;;;;;;;3.10;1.60;;;24.30;99.90;;;;;;5132280;27;20025;-72
2023/07/15 09:51:31;;;;;;;4.03;1.52;;;24.30;99.90;;;;;;5132171;27;20086;-72
2023/07/15 09:53:58;;;;;;;3.63;1.60;;;24.20;99.90;;;;;;5129240;27;20426;-71
2023/07/15 09:56:32;;;;;;;4.60;1.67;;;24.20;99.60;;;;;;5132290;27;20106;-71
2023/07/15 09:59:06;;;;;;;4.05;1.80;;;24.20;99.90;;;;;;5132255;27;20027;-72
2023/07/15 10:01:39;;;;;;;4.72;1.50;;;24.20;99.90;;;;;;5134020;27;20022;-72
2023/07/15 10:04:13;;;;;;;4.25;1.65;;;24.20;99.90;;;;;;5133007;27;20043;-71
2023/07/15 10:06:39;;;;;;;7.22;1.80;;;24.20;99.90;;;;;;5131875;27;20027;-70
2023/07/15 10:09:07;;;;;;;2.22;1.20;;;24.30;99.90;;;;;;5131113;27;20023;-72
2023/07/15 10:11:34;;;;;;;3.90;1.55;;;24.40;99.70;;;;;;5133576;27;20015;-73
2023/07/15 10:14:00;;;;;;;5.60;1.55;;;24.40;99.40;;;;;;5133639;27;20031;-72
2023/07/15 10:16:26;;;;;;;2.75;1.50;;;24.60;99.50;;;;;;5132688;27;20027;-72
2023/07/15 10:18:55;;;;;;;5.35;1.60;;;24.70;99.40;;;;;;5133211;27;20021;-71
2023/07/15 10:21:20;;;;;;;4.75;1.77;;;24.90;99.00;;;;;;5119959;27;20024;-72
2023/07/15 10:23:46;;;;;;;5.68;1.92;;;24.90;98.60;;;;;;5131972;27;20023;-72
2023/07/15 10:26:19;;;;;;;3.75;1.40;;;24.90;98.20;;;;;;5132816;27;20383;-71
2023/07/15 10:28:52;;;;;;;9.55;1.90;;;24.90;98.10;;;;;;5114278;27;20276;-72
2023/07/15 10:31:23;;;;;;;3.28;1.70;;;24.80;98.40;;;;;;5133118;27;20038;-72
2023/07/15 10:33:57;;;;;;;5.43;2.00;;;24.80;98.60;;;;;;5132775;27;20526;-72
2023/07/15 10:36:40;;;;;;;8.15;1.88;;;24.80;98.80;;;;;;5132834;27;20023;-72
2023/07/15 10:39:19;;;;;;;2.50;1.67;;;24.70;99.00;;;;;;5113665;28;20062;-72
2023/07/15 10:41:49;;;;;;;7.25;1.95;;;24.80;98.80;;;;;;5127792;27;20551;-72
2023/07/15 10:44:16;;;;;;;4.80;2.15;;;24.80;99.00;;;;;;5122514;27;20041;-71
2023/07/15 10:46:47;;;;;;;4.78;1.60;;;24.90;98.80;;;;;;5131777;27;20095;-72
2023/07/15 10:49:13;;;;;;;6.65;1.90;;;25.00;98.70;;;;;;5132756;27;20024;-73
2023/07/15 10:51:39;;;;;;;5.05;2.10;;;25.10;99.00;;;;;;5132692;27;20055;-72
2023/07/15 10:54:05;;;;;;;4.40;1.73;;;25.30;98.70;;;;;;5120886;27;20103;-72
2023/07/15 10:56:31;;;;;;;3.08;1.70;;;25.60;98.40;;;;;;5132780;27;20019;-73
2023/07/15 10:58:59;;;;;;;4.00;1.80;;;25.80;98.20;;;;;;5132377;27;20034;-73
2023/07/15 11:01:25;;;;;;;6.22;1.85;;;26.00;98.00;;;;;;5132311;28;20085;-72
2023/07/15 11:03:51;;;;;;;4.15;1.80;;;26.20;97.10;;;;;;5131938;28;20023;-72
2023/07/15 11:06:16;;;;;;;5.72;2.10;;;26.30;96.60;;;;;;5131379;28;20027;-73
2023/07/15 11:08:44;;;;;;;6.30;2.08;;;26.40;96.40;;;;;;5131787;28;20023;-73
2023/07/15 11:11:10;;;;;;;5.32;2.13;;;26.50;95.60;;;;;;5132059;28;20032;-73
2023/07/15 11:13:37;;;;;;;3.05;2.10;;;26.60;95.20;;;;;;5120224;28;20352;-72
2023/07/15 11:16:04;;;;;;;6.40;2.30;;;26.70;94.50;;;;;;5112380;28;20030;-72
2023/07/15 11:18:30;;;;;;;3.33;1.85;;;26.70;94.80;;;;;;5131229;28;20024;-72
2023/07/15 11:21:00;;;;;;;5.93;2.20;;;26.80;94.40;;;;;;5130517;28;20527;-72
2023/07/15 11:23:30;;;;;;;4.15;2.25;;;26.90;94.40;;;;;;5131090;28;20028;-72
2023/07/15 11:25:57;;;;;;;4.78;2.40;;;26.90;93.70;;;;;;5126044;28;20072;-73
2023/07/15 11:28:23;;;;;;;3.60;1.92;;;26.70;93.80;;;;;;5126866;28;20027;-72
2023/07/15 11:30:49;;;;;;;6.40;2.30;;;26.60;93.90;;;;;;5130784;28;20028;-72
2023/07/15 11:33:16;;;;;;;6.35;2.17;;;26.70;94.30;;;;;;5130716;28;20099;-73
2023/07/15 11:35:43;;;;;;;3.72;1.85;;;26.70;93.60;;;;;;5130684;28;20487;-72
2023/07/15 11:38:11;;;;;;;6.25;2.30;;;26.70;93.50;;;;;;5130884;28;20092;-72
2023/07/15 11:40:50;;;;;;;3.78;1.90;;;26.70;93.60;;;;;;5130638;28;20019;-72
2023/07/15 11:43:17;;;;;;;6.28;2.15;;;27.00;93.90;;;;;;5131461;28;20024;-73
2023/07/15 11:45:43;;;;;;;4.07;1.95;;;27.20;93.30;;;;;;5120951;28;20056;-72
2023/07/15 11:48:09;;;;;;;3.35;2.00;;;27.30;92.00;;;;;;5130561;28;20019;-73
2023/07/15 11:50:35;;;;;;;3.78;1.92;;;27.00;91.10;;;;;;5130339;28;20022;-72
2023/07/15 11:53:02;;;;;;;3.40;2.00;;;26.80;91.90;;;;;;5130658;28;20019;-73
2023/07/15 11:55:28;;;;;;;6.38;2.38;;;26.70;92.40;;;;;;5130620;28;20030;-72
2023/07/15 11:57:54;;;;;;;3.55;1.88;;;26.40;92.60;;;;;;5133208;27;20028;-73
2023/07/15 12:00:32;;;;;;;6.47;2.17;;;26.20;93.00;;;;;;5125920;27;20494;-74
2023/07/15 12:02:58;;;;;;;5.25;2.45;;;26.10;93.60;;;;;;5108580;27;20038;-73
2023/07/15 12:05:24;;;;;;;6.07;2.65;;;26.20;94.10;;;;;;5117223;27;20019;-75
2023/07/15 12:07:51;;;;;;;5.45;2.25;;;26.40;94.40;;;;;;5134340;27;20038;-75
2023/07/15 12:10:20;;;;;;;4.65;2.53;;;26.60;93.80;;;;;;5134397;27;20079;-73
2023/07/15 12:12:46;;;;;;;4.07;2.25;;;26.60;93.60;;;;;;5134106;27;20030;-73
2023/07/15 12:15:18;;;;;;;3.90;1.95;;;26.80;93.40;;;;;;5134726;27;20042;-73
2023/07/15 12:17:44;;;;;;;7.18;2.10;;;26.80;93.10;;;;;;5106431;28;20027;-73
2023/07/15 12:20:12;;;;;;;6.88;2.15;;;26.90;93.10;;;;;;5131969;27;20019;-72
2023/07/15 12:22:39;;;;;;;6.05;2.58;;;27.00;92.60;;;;;;5133766;27;20026;-73
2023/07/15 12:25:06;;;;;;;3.95;2.00;;;27.20;92.10;;;;;;5115489;27;20027;-72
2023/07/15 12:27:32;;;;;;;5.65;2.15;;;27.30;91.50;;;;;;5133553;27;20021;-72
2023/07/15 12:29:58;;;;;;;3.35;2.10;;;27.40;91.00;;;;;;5133712;27;20019;-72
2023/07/15 12:32:25;;;;;;;4.97;2.05;;;27.40;90.50;;;;;;5133516;27;20425;-72
2023/07/15 12:34:50;;;;;;;4.70;1.63;;;27.40;90.50;;;;;;5134089;27;20019;-72
2023/07/15 12:37:17;;;;;;;6.55;1.90;;;27.40;87.40;;;;;;5133487;27;20088;-72
2023/07/15 12:39:42;;;;;;;6.05;1.90;;;27.40;86.40;;;;;;5133075;27;20019;-72
2023/07/15 12:42:08;;;;;;;5.80;2.05;;;27.50;85.50;;;;;;5132050;27;20400;-72
2023/07/15 12:44:33;;;;;;;6.32;1.92;;;27.70;84.90;;;;;;5133633;27;20022;-73